createdAt,value
2017-08-14T00:02:18.338Z,3.70
2017-08-14T00:04:46.639Z,3.80
2017-08-14T00:07:14.446Z,3.83
2017-08-14T00:09:42.063Z,4.10
2017-08-14T00:12:09.575Z,4.00
2017-08-14T00:14:37.182Z,4.23
2017-08-14T00:17:04.839Z,3.70
2017-08-14T00:19:32.398Z,4.33
2017-08-14T00:21:59.959Z,4.00
2017-08-14T00:24:27.614Z,4.37
2017-08-14T00:26:55.119Z,4.73
2017-08-14T00:29:22.735Z,4.23
2017-08-14T00:31:50.333Z,4.10
2017-08-14T00:34:17.960Z,3.97
2017-08-14T00:36:45.885Z,4.67
2017-08-14T00:39:13.406Z,4.20
2017-08-14T00:41:40.907Z,4.60
2017-08-14T00:44:08.499Z,4.50
2017-08-14T00:46:36.062Z,4.70
2017-08-14T00:49:03.578Z,4.23
2017-08-14T00:51:31.183Z,3.80
2017-08-14T00:53:58.706Z,3.80
2017-08-14T00:56:26.972Z,4.23
2017-08-14T00:58:54.566Z,4.10
2017-08-14T01:01:22.855Z,4.50
2017-08-14T01:03:50.403Z,3.80
2017-08-14T01:06:17.919Z,4.20
2017-08-14T01:08:45.530Z,5.20
2017-08-14T01:11:13.056Z,5.40
2017-08-14T01:13:41.475Z,4.47
2017-08-14T01:16:09.039Z,5.20
2017-08-14T01:18:36.942Z,3.80
2017-08-14T01:21:04.554Z,4.73
2017-08-14T01:23:32.102Z,4.27
2017-08-14T01:25:59.622Z,5.20
2017-08-14T01:28:27.219Z,4.07
2017-08-14T01:30:54.784Z,4.53
2017-08-14T01:33:23.095Z,4.33
2017-08-14T01:35:51.498Z,4.50
2017-08-14T01:38:19.095Z,4.50
2017-08-14T01:40:46.879Z,3.80
2017-08-14T01:43:14.640Z,4.17
2017-08-14T01:45:42.189Z,4.27
2017-08-14T01:48:09.719Z,3.80
2017-08-14T01:50:38.023Z,4.23
2017-08-14T01:53:06.090Z,4.20
2017-08-14T01:55:33.590Z,3.93
2017-08-14T01:58:01.203Z,4.37
2017-08-14T02:00:28.771Z,4.17
2017-08-14T02:02:57.159Z,4.40
2017-08-14T02:05:25.422Z,4.20
2017-08-14T02:07:52.943Z,4.67
2017-08-14T02:10:20.534Z,4.30
2017-08-14T02:12:48.511Z,4.20
2017-08-14T02:15:16.071Z,5.10
2017-08-14T02:17:43.626Z,4.37
2017-08-14T02:20:11.128Z,4.50
2017-08-14T02:22:38.644Z,4.50
2017-08-14T02:25:06.147Z,5.00
2017-08-14T02:27:34.478Z,5.53
2017-08-14T02:30:01.981Z,4.80
2017-08-14T02:32:30.123Z,5.20
2017-08-14T02:34:58.347Z,5.63
2017-08-14T02:37:25.871Z,5.70
2017-08-14T02:39:53.371Z,6.30
2017-08-14T02:42:21.780Z,6.40
2017-08-14T02:44:49.339Z,5.83
2017-08-14T02:47:16.898Z,5.17
2017-08-14T02:49:44.403Z,5.23
2017-08-14T02:52:12.019Z,5.60
2017-08-14T02:54:40.495Z,6.30
2017-08-14T02:57:08.558Z,5.63
2017-08-14T02:59:36.223Z,5.67
2017-08-14T03:02:03.783Z,5.80
2017-08-14T03:04:31.299Z,6.03
2017-08-14T03:06:58.794Z,5.83
2017-08-14T03:09:27.027Z,5.93
2017-08-14T03:11:54.531Z,5.70
2017-08-14T03:14:22.808Z,5.87
2017-08-14T03:16:50.373Z,5.73
2017-08-14T03:19:17.931Z,5.37
2017-08-14T03:21:46.152Z,6.33
2017-08-14T03:24:13.667Z,5.20
2017-08-14T03:26:41.930Z,4.10
2017-08-14T03:29:10.151Z,4.60
2017-08-14T03:31:37.845Z,4.73
2017-08-14T03:34:06.186Z,5.17
2017-08-14T03:36:33.711Z,4.50
2017-08-14T03:39:01.271Z,6.20
2017-08-14T03:41:28.832Z,5.13
2017-08-14T03:43:58.000Z,4.93
2017-08-14T03:46:26.201Z,5.30
2017-08-14T03:48:54.015Z,5.03
2017-08-14T03:51:21.539Z,6.20
2017-08-14T03:53:49.423Z,5.47
2017-08-14T03:56:17.042Z,4.90
2017-08-14T03:58:44.660Z,4.97
2017-08-14T04:01:12.176Z,5.80
2017-08-14T04:03:39.718Z,5.50
2017-08-14T04:06:07.238Z,4.40
2017-08-14T04:08:35.656Z,5.47
2017-08-14T04:11:03.218Z,6.20
2017-08-14T04:13:31.082Z,6.07
2017-08-14T04:15:58.648Z,6.23
2017-08-14T04:18:26.159Z,6.70
2017-08-14T04:20:53.680Z,7.63
2017-08-14T04:23:21.214Z,7.40
2017-08-14T04:25:48.755Z,6.87
2017-08-14T04:28:17.050Z,6.17
2017-08-14T04:30:44.615Z,7.20
2017-08-14T04:33:12.175Z,7.07
2017-08-14T04:35:39.763Z,6.70
2017-08-14T04:38:07.339Z,6.77
2017-08-14T04:40:34.951Z,6.57
2017-08-14T04:43:02.558Z,7.60
2017-08-14T04:45:30.067Z,6.33
2017-08-14T04:47:58.415Z,7.57
2017-08-14T04:50:26.682Z,7.20
2017-08-14T04:52:54.204Z,6.87
2017-08-14T04:55:21.743Z,7.00
2017-08-14T04:57:49.264Z,7.43
2017-08-14T05:00:18.119Z,6.73
2017-08-14T05:02:45.851Z,6.07
2017-08-14T05:05:13.358Z,6.60
2017-08-14T05:07:40.963Z,7.43
2017-08-14T05:10:08.582Z,6.53
2017-08-14T05:12:36.885Z,7.27
2017-08-14T05:15:05.178Z,6.30
2017-08-14T05:17:33.203Z,5.80
2017-08-14T05:20:00.812Z,6.83
2017-08-14T05:22:28.371Z,6.60
2017-08-14T05:24:55.896Z,6.30
2017-08-14T05:27:24.198Z,5.97
2017-08-14T05:29:51.763Z,6.80
2017-08-14T05:32:19.319Z,5.47
2017-08-14T05:34:46.876Z,6.27
2017-08-14T05:37:14.543Z,4.97
2017-08-14T05:39:42.059Z,5.77
2017-08-14T05:42:09.564Z,6.50
2017-08-14T05:44:37.132Z,5.53
2017-08-14T05:47:04.658Z,5.87
2017-08-14T05:49:33.042Z,6.63
2017-08-14T05:52:00.614Z,6.23
2017-08-14T05:54:28.119Z,5.90
2017-08-14T05:56:55.731Z,5.20
2017-08-14T05:59:23.619Z,6.17
2017-08-14T06:01:51.139Z,5.97
2017-08-14T06:04:19.523Z,6.90
2017-08-14T06:06:47.507Z,6.90
2017-08-14T06:09:16.731Z,6.90
2017-08-14T06:11:44.356Z,7.77
2017-08-14T06:14:12.544Z,7.30
2017-08-14T06:16:40.095Z,7.93
2017-08-14T06:19:07.662Z,7.67
2017-08-14T06:21:35.182Z,6.87
2017-08-14T06:24:03.550Z,8.37
2017-08-14T06:26:31.071Z,6.43
2017-08-14T06:28:59.590Z,7.73
2017-08-14T06:31:27.102Z,8.63
2017-08-14T06:33:54.647Z,8.90
2017-08-14T06:36:22.319Z,7.53
2017-08-14T06:38:50.295Z,8.20
2017-08-14T06:41:17.902Z,8.40
2017-08-14T06:43:46.210Z,7.20
2017-08-14T06:46:13.750Z,7.10
2017-08-14T06:48:42.043Z,6.67
2017-08-14T06:51:09.548Z,7.03
2017-08-14T06:53:37.879Z,7.40
2017-08-14T06:56:05.383Z,6.53
2017-08-14T06:58:32.999Z,6.20
2017-08-14T07:01:00.499Z,7.03
2017-08-14T07:03:28.115Z,6.60
2017-08-14T07:05:56.387Z,6.47
2017-08-14T07:08:23.912Z,7.07
2017-08-14T07:10:51.510Z,6.43
2017-08-14T07:13:19.067Z,6.87
2017-08-14T07:15:47.277Z,6.43
2017-08-14T07:18:14.798Z,5.90
2017-08-14T07:20:42.363Z,5.97
2017-08-14T07:23:09.888Z,5.70
2017-08-14T07:25:38.166Z,6.33
2017-08-14T07:28:06.449Z,5.97
2017-08-14T07:30:35.476Z,6.87
2017-08-14T07:33:03.027Z,6.20
2017-08-14T07:35:30.581Z,5.53
2017-08-14T07:37:58.968Z,4.63
2017-08-14T07:40:26.471Z,5.83
2017-08-14T07:42:54.080Z,5.70
2017-08-14T07:45:21.608Z,6.63
2017-08-14T07:47:49.916Z,6.47
2017-08-14T07:50:17.439Z,6.63
2017-08-14T07:52:45.755Z,5.97
2017-08-14T07:55:13.311Z,6.20
2017-08-14T07:57:40.807Z,6.37
2017-08-14T08:00:08.431Z,6.20
2017-08-14T08:02:36.347Z,5.90
2017-08-14T08:05:03.996Z,5.90
2017-08-14T08:07:31.511Z,6.30
2017-08-14T08:09:59.174Z,6.93
2017-08-14T08:12:26.727Z,5.70
2017-08-14T08:14:54.311Z,6.20
2017-08-14T08:17:21.807Z,7.43
2017-08-14T08:19:50.122Z,6.50
2017-08-14T08:22:17.697Z,6.30
2017-08-14T08:24:45.244Z,5.67
2017-08-14T08:27:12.750Z,6.50
2017-08-14T08:29:40.348Z,6.27
2017-08-14T08:32:07.923Z,5.80
2017-08-14T08:34:35.479Z,5.77
2017-08-14T08:37:03.449Z,5.17
2017-08-14T08:39:30.987Z,5.80
2017-08-14T08:41:59.285Z,4.90
2017-08-14T08:44:26.839Z,5.10
2017-08-14T08:46:54.815Z,4.53
2017-08-14T08:49:22.372Z,4.30
2017-08-14T08:51:49.937Z,4.40
2017-08-14T08:54:18.106Z,4.30
2017-08-14T08:56:45.631Z,4.20
2017-08-14T08:59:13.899Z,3.87
2017-08-14T09:01:41.494Z,4.10
2017-08-14T09:04:09.115Z,3.53
2017-08-14T09:06:37.348Z,4.17
2017-08-14T09:09:04.995Z,3.40
2017-08-14T09:11:32.555Z,3.57
2017-08-14T09:14:00.767Z,4.07
2017-08-14T09:16:28.379Z,3.47
2017-08-14T09:18:55.884Z,3.57
2017-08-14T09:21:23.506Z,3.23
2017-08-14T09:23:51.888Z,3.50
2017-08-14T09:26:20.426Z,4.00
2017-08-14T09:28:48.027Z,3.03
2017-08-14T09:31:15.791Z,3.40
2017-08-14T09:33:43.507Z,3.20
2017-08-14T09:36:11.744Z,3.60
2017-08-14T09:38:39.283Z,3.30
2017-08-14T09:41:06.796Z,2.97
2017-08-14T09:43:34.609Z,2.67
2017-08-14T09:46:02.115Z,2.50
2017-08-14T09:48:29.725Z,2.50
2017-08-14T09:50:57.285Z,2.43
2017-08-14T09:53:25.302Z,2.90
2017-08-14T09:55:52.811Z,2.80
2017-08-14T09:58:20.331Z,2.67
2017-08-14T10:00:47.835Z,2.50
2017-08-14T10:03:15.359Z,2.30
2017-08-14T10:05:43.653Z,2.97
2017-08-14T10:08:11.179Z,2.17
2017-08-14T10:10:38.785Z,2.07
2017-08-14T10:13:06.336Z,1.77
2017-08-14T10:15:33.844Z,2.13
2017-08-14T10:18:01.346Z,1.83
2017-08-14T10:20:28.907Z,2.33
2017-08-14T10:22:56.410Z,2.30
2017-08-14T10:25:23.923Z,2.13
2017-08-14T10:27:52.139Z,2.00
2017-08-14T10:30:19.768Z,2.60
2017-08-14T10:32:47.335Z,2.50
2017-08-14T10:35:14.879Z,2.20
2017-08-14T10:37:42.439Z,2.40
2017-08-14T10:40:10.000Z,2.33
2017-08-14T10:42:37.508Z,2.30
2017-08-14T10:45:05.039Z,2.03
2017-08-14T10:47:32.543Z,2.67
2017-08-14T10:50:00.956Z,2.20
2017-08-14T10:52:28.516Z,2.23
2017-08-14T10:54:56.071Z,2.40
2017-08-14T10:57:23.635Z,1.70
2017-08-14T10:59:51.136Z,2.30
2017-08-14T11:02:18.748Z,2.03
2017-08-14T11:04:46.715Z,2.10
2017-08-14T11:07:14.240Z,1.90
2017-08-14T11:09:41.746Z,1.53
2017-08-14T11:12:09.296Z,1.67
2017-08-14T11:14:36.795Z,1.50
2017-08-14T11:17:04.319Z,1.63
2017-08-14T11:19:31.825Z,1.90
2017-08-14T11:21:59.512Z,2.07
2017-08-14T11:24:27.087Z,1.50
2017-08-14T11:26:54.644Z,1.47
2017-08-14T11:29:22.924Z,1.60
2017-08-14T11:31:50.955Z,1.33
2017-08-14T11:34:18.551Z,2.10
2017-08-14T11:36:46.112Z,1.70
2017-08-14T11:39:13.680Z,2.30
2017-08-14T11:41:41.199Z,2.30
2017-08-14T11:44:10.383Z,2.00
2017-08-14T11:46:37.983Z,1.60
2017-08-14T11:49:05.492Z,2.00
2017-08-14T11:51:33.088Z,2.07
2017-08-14T11:54:00.595Z,1.57
2017-08-14T11:56:28.214Z,1.70
2017-08-14T11:58:55.779Z,2.00
2017-08-14T12:01:23.344Z,1.80
2017-08-14T12:03:50.904Z,1.60
2017-08-14T12:06:18.427Z,2.03
2017-08-14T12:08:46.700Z,2.17
2017-08-14T12:11:14.991Z,1.77
2017-08-14T12:13:43.260Z,1.87
2017-08-14T12:16:11.669Z,1.73
2017-08-14T12:18:39.224Z,2.37
2017-08-14T12:21:06.732Z,2.50
2017-08-14T12:23:34.252Z,1.87
2017-08-14T12:26:01.875Z,1.90
2017-08-14T12:28:30.116Z,1.67
2017-08-14T12:30:57.622Z,2.00
2017-08-14T12:33:25.187Z,2.20
2017-08-14T12:35:53.248Z,1.90
2017-08-14T12:38:20.768Z,2.20
2017-08-14T12:40:48.376Z,2.07
2017-08-14T12:43:15.937Z,2.13
2017-08-14T12:45:44.230Z,2.40
2017-08-14T12:48:11.751Z,2.43
2017-08-14T12:50:39.283Z,2.00
2017-08-14T12:53:06.887Z,2.40
2017-08-14T12:55:34.390Z,2.10
2017-08-14T12:58:01.886Z,2.40
2017-08-14T13:00:29.463Z,2.20
2017-08-14T13:02:57.015Z,2.10
2017-08-14T13:05:24.584Z,2.13
2017-08-14T13:07:52.633Z,2.40
2017-08-14T13:10:20.914Z,2.67
2017-08-14T13:12:48.415Z,2.40
2017-08-14T13:15:16.201Z,2.40
2017-08-14T13:17:43.702Z,2.70
2017-08-14T13:20:11.372Z,2.30
2017-08-14T13:22:38.883Z,2.57
2017-08-14T13:25:06.404Z,2.53
2017-08-14T13:27:33.938Z,2.50
2017-08-14T13:30:01.503Z,2.30
2017-08-14T13:32:29.059Z,2.27
2017-08-14T13:34:56.575Z,2.27
2017-08-14T13:37:24.071Z,2.27
2017-08-14T13:39:52.559Z,2.17
2017-08-14T13:42:20.959Z,2.40
2017-08-14T13:44:48.496Z,2.10
2017-08-14T13:47:16.671Z,2.33
2017-08-14T13:49:44.179Z,2.43
2017-08-14T13:52:11.700Z,2.70
2017-08-14T13:54:39.199Z,2.50
2017-08-14T13:57:06.796Z,2.67
2017-08-14T13:59:35.499Z,2.37
2017-08-14T14:02:03.025Z,2.33
2017-08-14T14:04:31.300Z,2.20
2017-08-14T14:06:59.583Z,2.30
2017-08-14T14:09:27.083Z,2.37
2017-08-14T14:11:55.534Z,2.00
2017-08-14T14:14:23.090Z,2.27
2017-08-14T14:16:50.652Z,2.43
2017-08-14T14:19:18.217Z,2.40
2017-08-14T14:21:45.774Z,2.50
2017-08-14T14:24:15.133Z,2.17
2017-08-14T14:26:42.740Z,2.10
2017-08-14T14:29:10.247Z,2.47
2017-08-14T14:31:37.771Z,2.40
2017-08-14T14:34:05.710Z,2.10
2017-08-14T14:36:33.380Z,2.60
2017-08-14T14:39:00.883Z,2.30
2017-08-14T14:41:28.494Z,2.43
2017-08-14T14:43:56.063Z,2.43
2017-08-14T14:46:23.918Z,2.77
2017-08-14T14:48:51.452Z,2.30
2017-08-14T14:51:19.419Z,2.67
2017-08-14T14:53:47.007Z,2.37
2017-08-14T14:56:14.510Z,2.30
2017-08-14T14:58:42.126Z,1.93
2017-08-14T15:01:09.637Z,2.17
2017-08-14T15:03:37.244Z,1.90
2017-08-14T15:06:04.812Z,2.33
2017-08-14T15:08:32.340Z,2.43
2017-08-14T15:11:00.615Z,2.10
2017-08-14T15:13:28.901Z,2.03
2017-08-14T15:15:56.474Z,1.80
2017-08-14T15:18:24.031Z,1.67
2017-08-14T15:20:52.055Z,1.50
2017-08-14T15:23:19.658Z,1.50
2017-08-14T15:25:47.168Z,1.97
2017-08-14T15:28:14.771Z,2.10
2017-08-14T15:30:42.334Z,2.17
2017-08-14T15:33:09.901Z,1.80
2017-08-14T15:35:37.456Z,1.70
2017-08-14T15:38:04.975Z,1.70
2017-08-14T15:40:32.576Z,2.00
2017-08-14T15:43:00.582Z,2.10
2017-08-14T15:45:28.229Z,1.80
2017-08-14T15:47:55.736Z,2.20
2017-08-14T15:50:24.036Z,1.83
2017-08-14T15:52:51.595Z,1.80
2017-08-14T15:55:19.159Z,1.73
2017-08-14T15:57:46.671Z,1.70
2017-08-14T16:00:14.274Z,1.60
2017-08-14T16:02:41.814Z,1.87
2017-08-14T16:05:10.103Z,1.90
2017-08-14T16:07:37.666Z,2.07
2017-08-14T16:10:05.228Z,2.20
2017-08-14T16:12:33.233Z,2.17
2017-08-14T16:15:00.855Z,2.70
2017-08-14T16:17:29.014Z,2.67
2017-08-14T16:19:58.123Z,2.83
2017-08-14T16:22:25.655Z,2.40
2017-08-14T16:24:53.923Z,1.90
2017-08-14T16:27:21.449Z,2.53
2017-08-14T16:29:48.991Z,2.47
2017-08-14T16:32:16.531Z,2.80
2017-08-14T16:34:44.146Z,2.43
2017-08-14T16:37:11.761Z,2.37
2017-08-14T16:39:39.320Z,2.90
2017-08-14T16:42:07.992Z,2.70
2017-08-14T16:44:35.502Z,3.03
2017-08-14T16:47:06.031Z,2.57
2017-08-14T16:49:33.643Z,2.80
2017-08-14T16:52:01.163Z,3.23
2017-08-14T16:54:28.671Z,3.20
2017-08-14T16:56:56.196Z,2.50
2017-08-14T16:59:24.324Z,2.40
2017-08-14T17:01:51.856Z,3.07
2017-08-14T17:04:19.407Z,2.90
2017-08-14T17:06:46.932Z,3.30
2017-08-14T17:09:15.243Z,3.33
2017-08-14T17:11:42.804Z,4.23
2017-08-14T17:14:10.315Z,3.20
2017-08-14T17:16:37.919Z,2.90
2017-08-14T17:19:05.423Z,2.80
2017-08-14T17:21:33.757Z,3.10
2017-08-14T17:24:01.326Z,4.00
2017-08-14T17:26:29.030Z,3.33
2017-08-14T17:28:56.546Z,3.97
2017-08-14T17:31:24.048Z,4.50
2017-08-14T17:33:51.651Z,4.47
2017-08-14T17:36:19.621Z,3.30
2017-08-14T17:38:47.184Z,3.50
2017-08-14T17:41:14.743Z,4.53
2017-08-14T17:43:42.305Z,3.80
2017-08-14T17:46:10.371Z,4.77
2017-08-14T17:48:38.031Z,4.63
2017-08-14T17:51:05.534Z,6.43
2017-08-14T17:53:33.056Z,7.30
2017-08-14T17:56:00.604Z,6.90
2017-08-14T17:58:28.163Z,6.83
2017-08-14T18:00:56.131Z,5.97
2017-08-14T18:03:23.644Z,5.93
2017-08-14T18:05:51.177Z,5.40
2017-08-14T18:08:18.683Z,5.60
2017-08-14T18:10:46.982Z,5.40
2017-08-14T18:13:14.491Z,4.80
2017-08-14T18:15:42.099Z,4.73
2017-08-14T18:18:09.608Z,5.17
2017-08-14T18:20:37.129Z,5.77
2017-08-14T18:23:04.635Z,4.90
2017-08-14T18:25:32.162Z,5.07
2017-08-14T18:27:59.668Z,5.20
2017-08-14T18:30:27.952Z,5.07
2017-08-14T18:32:56.218Z,4.80
2017-08-14T18:35:24.505Z,5.87
2017-08-14T18:37:52.775Z,4.97
2017-08-14T18:40:21.179Z,5.17
2017-08-14T18:42:48.727Z,5.33
2017-08-14T18:45:16.958Z,5.17
2017-08-14T18:47:44.496Z,6.00
2017-08-14T18:50:12.057Z,5.50
2017-08-14T18:52:39.635Z,5.30
2017-08-14T18:55:07.140Z,5.07
2017-08-14T18:57:34.669Z,5.93
2017-08-14T19:00:02.948Z,6.37
2017-08-14T19:02:31.250Z,5.00
2017-08-14T19:04:59.328Z,5.10
2017-08-14T19:07:27.969Z,4.57
2017-08-14T19:09:55.893Z,5.40
2017-08-14T19:12:22.923Z,5.17
2017-08-14T19:14:50.427Z,6.40
2017-08-14T19:17:18.044Z,5.63
2017-08-14T19:19:45.906Z,7.40
2017-08-14T19:22:13.432Z,7.50
2017-08-14T19:24:41.707Z,8.60
2017-08-14T19:27:10.783Z,7.33
2017-08-14T19:29:38.290Z,6.00
2017-08-14T19:32:06.289Z,6.30
2017-08-14T19:34:33.804Z,6.80
2017-08-14T19:37:02.097Z,6.53
2017-08-14T19:39:29.656Z,6.80
2017-08-14T19:41:57.724Z,5.70
2017-08-14T19:44:25.383Z,5.90
2017-08-14T19:46:52.938Z,5.93
2017-08-14T19:49:20.460Z,5.27
2017-08-14T19:51:48.055Z,5.60
2017-08-14T19:54:15.580Z,5.67
2017-08-14T19:56:43.616Z,5.20
2017-08-14T19:59:11.253Z,5.80
2017-08-14T20:01:38.811Z,5.87
2017-08-14T20:04:06.336Z,5.60
2017-08-14T20:06:34.652Z,5.63
2017-08-14T20:09:02.828Z,6.87
2017-08-14T20:11:30.331Z,6.37
2017-08-14T20:13:57.935Z,6.10
2017-08-14T20:16:25.439Z,5.43
2017-08-14T20:18:52.971Z,5.73
2017-08-14T20:21:20.515Z,5.43
2017-08-14T20:23:48.056Z,6.67
2017-08-14T20:26:16.359Z,6.00
2017-08-14T20:28:43.867Z,6.23
2017-08-14T20:31:11.388Z,6.40
2017-08-14T20:33:38.928Z,6.97
2017-08-14T20:36:06.483Z,7.60
2017-08-14T20:38:33.983Z,6.90
2017-08-14T20:41:01.597Z,5.83
2017-08-14T20:43:29.103Z,6.50
2017-08-14T20:45:56.729Z,6.00
2017-08-14T20:48:24.271Z,5.60
2017-08-14T20:50:52.047Z,5.57
2017-08-14T20:53:19.550Z,5.30
2017-08-14T20:55:47.071Z,5.40
2017-08-14T20:58:15.394Z,5.23
2017-08-14T21:00:43.603Z,6.57
2017-08-14T21:03:11.799Z,5.47
2017-08-14T21:05:40.200Z,6.93
2017-08-14T21:08:10.379Z,6.40
2017-08-14T21:10:38.161Z,5.90
2017-08-14T21:13:05.695Z,6.20
2017-08-14T21:15:33.259Z,6.47
2017-08-14T21:18:01.539Z,6.03
2017-08-14T21:20:29.099Z,5.73
2017-08-14T21:22:56.618Z,6.57
2017-08-14T21:25:24.895Z,5.67
2017-08-14T21:27:53.184Z,5.40
2017-08-14T21:30:21.451Z,5.30
2017-08-14T21:32:49.758Z,4.73
2017-08-14T21:35:17.262Z,5.57
2017-08-14T21:37:44.787Z,5.60
2017-08-14T21:40:12.286Z,5.50
2017-08-14T21:42:39.886Z,5.70
2017-08-14T21:45:07.391Z,6.10
2017-08-14T21:47:35.020Z,6.07
2017-08-14T21:50:02.567Z,8.77
2017-08-14T21:52:30.083Z,7.43
2017-08-14T21:54:57.688Z,7.40
2017-08-14T21:57:25.366Z,22.20
2017-08-14T21:59:52.902Z,22.80
2017-08-14T22:02:20.427Z,10.83
2017-08-14T22:04:48.036Z,10.87
2017-08-14T22:07:15.835Z,10.30
2017-08-14T22:09:44.272Z,10.10
2017-08-14T22:12:11.828Z,10.00
2017-08-14T22:14:39.391Z,9.53
2017-08-14T22:17:06.898Z,10.60
2017-08-14T22:19:34.419Z,9.50
2017-08-14T22:22:01.959Z,9.10
2017-08-14T22:24:29.634Z,9.87
2017-08-14T22:26:57.382Z,8.70
2017-08-14T22:29:25.731Z,9.40
2017-08-14T22:31:54.003Z,8.90
2017-08-14T22:34:21.599Z,9.77
2017-08-14T22:36:49.666Z,8.60
2017-08-14T22:39:18.147Z,9.30
2017-08-14T22:41:45.651Z,8.07
2017-08-14T22:44:13.891Z,8.90
2017-08-14T22:46:42.158Z,7.70
2017-08-14T22:49:10.240Z,8.63
2017-08-14T22:51:37.807Z,7.90
2017-08-14T22:54:05.311Z,8.63
2017-08-14T22:56:32.831Z,8.77
2017-08-14T22:59:00.363Z,7.90
2017-08-14T23:01:27.891Z,8.03
2017-08-14T23:03:57.016Z,7.23
2017-08-14T23:06:25.395Z,7.60
2017-08-14T23:08:52.958Z,7.63
2017-08-14T23:11:20.515Z,7.17
2017-08-14T23:13:48.839Z,6.60
2017-08-14T23:16:16.368Z,6.80
2017-08-14T23:18:44.859Z,6.37
2017-08-14T23:21:12.835Z,6.77
2017-08-14T23:23:40.539Z,6.50
2017-08-14T23:26:08.870Z,6.20
2017-08-14T23:28:36.883Z,5.67
2017-08-14T23:31:06.015Z,6.77
2017-08-14T23:33:34.251Z,5.67
2017-08-14T23:36:02.555Z,5.87
2017-08-14T23:38:30.630Z,5.03
2017-08-14T23:40:58.902Z,5.43
2017-08-14T23:43:26.454Z,6.03
2017-08-14T23:45:53.995Z,5.43
2017-08-14T23:48:22.279Z,5.10
2017-08-14T23:50:50.158Z,5.53
2017-08-14T23:53:17.715Z,5.60
2017-08-14T23:55:45.279Z,5.87
2017-08-14T23:58:12.835Z,5.83
